createdAt,value
2018-07-24T00:01:26.980Z,88.87
2018-07-24T00:03:54.099Z,88.82
2018-07-24T00:06:21.303Z,88.96
2018-07-24T00:08:48.447Z,88.13
2018-07-24T00:11:15.532Z,88.91
2018-07-24T00:13:42.842Z,89.64
2018-07-24T00:16:10.007Z,88.62
2018-07-24T00:18:37.179Z,87.37
2018-07-24T00:21:04.319Z,86.46
2018-07-24T00:23:31.416Z,86.02
2018-07-24T00:25:58.588Z,84.54
2018-07-24T00:28:33.087Z,85.55
2018-07-24T00:31:00.187Z,86.88
2018-07-24T00:33:27.355Z,87.07
2018-07-24T00:35:54.544Z,86.69
2018-07-24T00:38:21.668Z,86.02
2018-07-24T00:40:48.787Z,84.71
2018-07-24T00:43:15.925Z,84.41
2018-07-24T00:45:43.056Z,85.40
2018-07-24T00:48:10.192Z,85.50
2018-07-24T00:50:37.335Z,84.58
2018-07-24T00:53:04.474Z,85.08
2018-07-24T00:55:31.644Z,85.55
2018-07-24T00:57:58.775Z,85.45
2018-07-24T01:00:25.939Z,85.35
2018-07-24T01:02:53.087Z,86.57
2018-07-24T01:05:20.175Z,86.90
2018-07-24T01:07:47.285Z,88.49
2018-07-24T01:10:14.412Z,89.57
2018-07-24T01:12:41.600Z,90.29
2018-07-24T01:15:08.717Z,91.17
2018-07-24T01:17:35.907Z,92.28
2018-07-24T01:20:03.899Z,89.52
2018-07-24T01:22:31.043Z,90.05
2018-07-24T01:24:58.255Z,90.52
2018-07-24T01:27:25.398Z,90.92
2018-07-24T01:29:52.679Z,90.46
2018-07-24T01:32:19.836Z,89.69
2018-07-24T01:34:46.987Z,89.30
2018-07-24T01:37:14.117Z,90.40
2018-07-24T01:39:41.276Z,89.85
2018-07-24T01:42:08.441Z,89.71
2018-07-24T01:44:35.581Z,90.45
2018-07-24T01:47:03.176Z,90.62
2018-07-24T01:49:30.308Z,90.42
2018-07-24T01:51:57.533Z,90.51
2018-07-24T01:54:24.778Z,90.67
2018-07-24T01:56:51.929Z,90.56
2018-07-24T01:59:19.071Z,90.21
2018-07-24T02:01:46.221Z,89.39
2018-07-24T02:04:13.369Z,89.13
2018-07-24T02:06:40.569Z,88.13
2018-07-24T02:09:08.861Z,87.30
2018-07-24T02:11:36.048Z,87.55
2018-07-24T02:14:03.256Z,88.48
2018-07-24T02:16:30.401Z,89.45
2018-07-24T02:18:57.569Z,89.30
2018-07-24T02:21:24.748Z,87.56
2018-07-24T02:23:51.896Z,87.92
2018-07-24T02:26:19.072Z,87.05
2018-07-24T02:28:46.242Z,88.23
2018-07-24T02:31:13.406Z,89.42
2018-07-24T02:33:40.546Z,90.97
2018-07-24T02:36:07.659Z,91.49
2018-07-24T02:38:34.765Z,90.50
2018-07-24T02:41:01.996Z,90.16
2018-07-24T02:43:29.140Z,89.30
2018-07-24T02:45:56.234Z,87.90
2018-07-24T02:48:23.352Z,88.20
2018-07-24T02:50:50.508Z,88.03
2018-07-24T02:53:17.652Z,87.24
2018-07-24T02:55:44.817Z,86.97
2018-07-24T02:58:11.976Z,87.28
2018-07-24T03:00:39.133Z,89.50
2018-07-24T03:03:06.405Z,88.06
2018-07-24T03:05:40.437Z,87.02
2018-07-24T03:08:07.596Z,86.34
2018-07-24T03:10:34.757Z,85.96
2018-07-24T03:13:02.030Z,85.45
2018-07-24T03:15:29.108Z,85.54
2018-07-24T03:17:56.228Z,86.30
2018-07-24T03:20:23.357Z,85.75
2018-07-24T03:22:50.488Z,85.94
2018-07-24T03:25:17.577Z,85.65
2018-07-24T03:27:44.718Z,85.44
2018-07-24T03:30:11.885Z,85.41
2018-07-24T03:32:39.040Z,85.63
2018-07-24T03:35:06.204Z,86.28
2018-07-24T03:37:33.333Z,87.46
2018-07-24T03:40:00.441Z,87.45
2018-07-24T03:42:27.556Z,89.00
2018-07-24T03:44:54.737Z,90.78
2018-07-24T03:47:21.898Z,91.87
2018-07-24T03:49:49.084Z,92.76
2018-07-24T03:52:16.220Z,93.36
2018-07-24T03:54:43.882Z,92.46
2018-07-24T03:57:11.064Z,91.80
2018-07-24T03:59:38.191Z,91.19
2018-07-24T04:02:05.441Z,89.57
2018-07-24T04:07:06.591Z,91.64
2018-07-24T04:09:33.721Z,91.67
2018-07-24T04:12:00.848Z,91.32
2018-07-24T04:14:27.992Z,90.36
2018-07-24T04:16:55.212Z,90.05
2018-07-24T04:19:22.382Z,90.46
2018-07-24T04:21:49.829Z,91.20
2018-07-24T04:24:16.945Z,89.37
2018-07-24T04:26:44.057Z,89.30
2018-07-24T04:29:11.206Z,90.03
2018-07-24T04:31:38.348Z,89.13
2018-07-24T04:34:05.589Z,90.30
2018-07-24T04:36:32.721Z,90.51
2018-07-24T04:38:59.809Z,89.49
2018-07-24T04:41:26.907Z,91.23
2018-07-24T04:43:54.055Z,90.19
2018-07-24T04:46:21.151Z,88.81
2018-07-24T04:48:48.304Z,88.44
2018-07-24T04:51:15.531Z,89.40
2018-07-24T04:53:42.824Z,88.46
2018-07-24T04:56:09.980Z,88.81
2018-07-24T04:58:37.107Z,88.54
2018-07-24T05:01:04.209Z,88.36
2018-07-24T05:03:31.376Z,88.15
2018-07-24T05:05:58.553Z,87.95
2018-07-24T05:08:25.724Z,88.42
2018-07-24T05:10:52.866Z,87.76
2018-07-24T05:13:20.024Z,88.77
2018-07-24T05:15:47.116Z,88.02
2018-07-24T05:18:14.285Z,87.00
2018-07-24T05:20:41.496Z,86.37
2018-07-24T05:23:08.657Z,85.06
2018-07-24T05:25:35.801Z,84.77
2018-07-24T05:28:02.891Z,85.33
2018-07-24T05:30:30.022Z,85.30
2018-07-24T05:32:57.168Z,85.99
2018-07-24T05:35:24.358Z,85.19
2018-07-24T05:37:51.497Z,85.85
2018-07-24T05:40:18.616Z,84.74
2018-07-24T05:42:45.732Z,83.89
2018-07-24T05:45:12.876Z,81.52
2018-07-24T05:47:40.050Z,81.18
2018-07-24T05:50:07.457Z,81.48
2018-07-24T05:52:34.627Z,81.38
2018-07-24T05:55:02.609Z,79.45
2018-07-24T05:57:29.729Z,79.08
2018-07-24T05:59:56.929Z,79.26
2018-07-24T06:02:24.128Z,79.32
2018-07-24T06:04:51.275Z,79.31
2018-07-24T06:07:18.487Z,78.01
2018-07-24T06:09:46.013Z,77.06
2018-07-24T06:12:13.181Z,75.19
2018-07-24T06:14:40.349Z,74.65
2018-07-24T06:17:07.497Z,74.00
2018-07-24T06:19:34.645Z,73.27
2018-07-24T06:22:01.790Z,73.77
2018-07-24T06:24:28.900Z,72.05
2018-07-24T06:26:56.056Z,71.13
2018-07-24T06:29:23.218Z,71.36
2018-07-24T06:31:50.388Z,71.67
2018-07-24T06:34:17.536Z,71.24
2018-07-24T06:36:44.680Z,69.92
2018-07-24T06:39:12.840Z,70.00
2018-07-24T06:41:40.724Z,68.82
2018-07-24T06:44:08.175Z,69.08
2018-07-24T06:46:35.332Z,67.44
2018-07-24T06:49:02.828Z,66.95
2018-07-24T06:51:30.053Z,67.21
2018-07-24T06:53:57.172Z,66.27
2018-07-24T06:56:24.275Z,65.68
2018-07-24T06:58:51.440Z,64.34
2018-07-24T07:01:18.965Z,65.69
2018-07-24T07:03:46.132Z,65.92
2018-07-24T07:06:13.313Z,65.08
2018-07-24T07:08:40.525Z,64.11
2018-07-24T07:11:07.768Z,63.55
2018-07-24T07:13:35.036Z,63.11
2018-07-24T07:16:02.245Z,61.53
2018-07-24T07:18:29.357Z,63.40
2018-07-24T07:20:56.505Z,60.37
2018-07-24T07:23:23.647Z,60.39
2018-07-24T07:25:50.813Z,59.66
2018-07-24T07:28:17.973Z,59.69
2018-07-24T07:30:45.115Z,58.45
2018-07-24T07:33:12.263Z,59.33
2018-07-24T07:35:39.460Z,58.22
2018-07-24T07:38:06.607Z,58.31
2018-07-24T07:40:33.729Z,56.18
2018-07-24T07:43:00.978Z,55.49
2018-07-24T07:45:28.153Z,56.53
2018-07-24T07:47:55.335Z,55.18
2018-07-24T07:50:22.512Z,54.18
2018-07-24T07:52:49.726Z,52.76
2018-07-24T07:55:16.862Z,53.03
2018-07-24T07:57:43.949Z,50.90
2018-07-24T08:00:11.136Z,51.61
2018-07-24T08:02:38.245Z,48.25
2018-07-24T08:05:05.790Z,45.55
2018-07-24T08:07:32.976Z,48.10
2018-07-24T08:10:00.432Z,46.37
2018-07-24T08:12:27.788Z,48.13
2018-07-24T08:14:54.936Z,44.58
2018-07-24T08:17:22.095Z,43.75
2018-07-24T08:19:49.277Z,43.82
2018-07-24T08:22:16.556Z,44.53
2018-07-24T08:24:43.654Z,39.99
2018-07-24T08:29:50.377Z,40.80
2018-07-24T08:32:17.593Z,41.12
2018-07-24T08:34:44.728Z,41.07
2018-07-24T08:37:11.843Z,41.77
2018-07-24T08:39:39.095Z,40.13
2018-07-24T08:42:06.253Z,39.18
2018-07-24T08:44:33.388Z,39.98
2018-07-24T08:47:00.533Z,41.72
2018-07-24T08:49:27.712Z,39.97
2018-07-24T08:51:54.892Z,41.35
2018-07-24T08:54:22.261Z,41.18
2018-07-24T08:56:49.245Z,40.58
2018-07-24T08:59:16.379Z,39.91
2018-07-24T09:01:43.542Z,39.67
2018-07-24T09:04:10.741Z,40.74
2018-07-24T09:06:37.875Z,38.67
2018-07-24T09:09:07.454Z,37.96
2018-07-24T09:11:34.622Z,38.86
2018-07-24T09:14:01.722Z,38.27
2018-07-24T09:16:28.856Z,39.16
2018-07-24T09:18:55.969Z,39.29
2018-07-24T09:21:23.173Z,38.14
2018-07-24T09:23:50.320Z,36.86
2018-07-24T09:26:17.455Z,37.94
2018-07-24T09:28:44.616Z,37.11
2018-07-24T09:31:11.805Z,36.93
2018-07-24T09:33:38.924Z,37.50
2018-07-24T09:36:06.084Z,37.44
2018-07-24T09:38:33.236Z,36.05
2018-07-24T09:41:00.402Z,35.91
2018-07-24T09:43:27.570Z,37.27
2018-07-24T09:45:54.776Z,37.87
2018-07-24T09:48:21.923Z,38.57
2018-07-24T09:50:49.077Z,37.80
2018-07-24T09:53:16.211Z,36.93
2018-07-24T09:55:43.352Z,35.99
2018-07-24T09:58:10.528Z,36.89
2018-07-24T10:00:43.389Z,37.37
2018-07-24T10:03:10.533Z,38.90
2018-07-24T10:05:37.663Z,38.16
2018-07-24T10:08:04.872Z,39.02
2018-07-24T10:10:32.152Z,39.41
2018-07-24T10:12:59.353Z,40.25
2018-07-24T10:15:26.504Z,38.89
2018-07-24T10:17:53.705Z,38.53
2018-07-24T10:20:20.868Z,37.86
2018-07-24T10:22:47.957Z,37.71
2018-07-24T10:25:15.105Z,36.52
2018-07-24T10:27:42.265Z,35.04
2018-07-24T10:30:09.438Z,35.22
2018-07-24T10:32:36.909Z,35.66
2018-07-24T10:35:05.027Z,35.43
2018-07-24T10:37:32.165Z,37.60
2018-07-24T10:39:59.347Z,36.88
2018-07-24T10:42:26.527Z,36.04
2018-07-24T10:44:53.719Z,35.68
2018-07-24T10:47:20.861Z,35.68
2018-07-24T10:49:47.989Z,33.67
2018-07-24T10:52:15.192Z,35.11
2018-07-24T10:54:42.506Z,33.41
2018-07-24T10:57:09.665Z,32.28
2018-07-24T10:59:36.848Z,32.67
2018-07-24T11:02:04.112Z,33.00
2018-07-24T11:04:31.233Z,34.05
2018-07-24T11:06:58.367Z,33.73
2018-07-24T11:09:25.537Z,32.60
2018-07-24T11:11:52.671Z,31.40
2018-07-24T11:14:19.808Z,32.74
2018-07-24T11:16:46.993Z,33.81
2018-07-24T11:19:14.147Z,32.20
2018-07-24T11:21:41.254Z,31.64
2018-07-24T11:24:08.428Z,32.77
2018-07-24T11:26:35.554Z,34.44
2018-07-24T11:29:02.723Z,33.95
2018-07-24T11:31:29.923Z,31.05
2018-07-24T11:33:57.100Z,31.06
2018-07-24T11:36:24.366Z,31.62
2018-07-24T11:38:51.696Z,31.46
2018-07-24T11:41:18.821Z,32.21
2018-07-24T11:43:45.983Z,31.89
2018-07-24T11:46:13.108Z,31.40
2018-07-24T11:48:40.264Z,30.38
2018-07-24T11:51:07.694Z,28.95
2018-07-24T11:53:34.869Z,29.86
2018-07-24T11:56:01.998Z,29.16
2018-07-24T11:58:29.168Z,29.43
2018-07-24T12:00:56.329Z,29.16
2018-07-24T12:03:23.493Z,29.57
2018-07-24T12:05:50.707Z,28.55
2018-07-24T12:08:17.841Z,28.81
2018-07-24T12:10:44.972Z,28.82
2018-07-24T12:13:12.078Z,28.71
2018-07-24T12:15:39.273Z,27.51
2018-07-24T12:18:06.446Z,29.00
2018-07-24T12:20:33.577Z,29.20
2018-07-24T12:23:00.794Z,28.68
2018-07-24T12:25:27.919Z,28.99
2018-07-24T12:27:55.101Z,26.88
2018-07-24T12:30:22.237Z,27.22
2018-07-24T12:32:49.364Z,27.47
2018-07-24T12:35:16.534Z,26.87
2018-07-24T12:37:43.657Z,27.15
2018-07-24T12:40:10.827Z,27.36
2018-07-24T12:42:38.235Z,27.13
2018-07-24T12:45:06.005Z,28.84
2018-07-24T12:47:33.464Z,28.27
2018-07-24T12:50:00.613Z,29.35
2018-07-24T12:52:27.839Z,27.22
2018-07-24T12:54:54.929Z,27.20
2018-07-24T12:57:23.003Z,28.73
2018-07-24T12:59:50.153Z,26.42
2018-07-24T13:02:17.383Z,27.27
2018-07-24T13:04:44.506Z,29.03
2018-07-24T13:07:11.724Z,29.12
2018-07-24T13:09:38.903Z,27.16
2018-07-24T13:12:06.133Z,26.55
2018-07-24T13:14:33.310Z,28.30
2018-07-24T13:17:00.452Z,29.99
2018-07-24T13:19:27.604Z,28.79
2018-07-24T13:21:54.728Z,27.40
2018-07-24T13:24:21.899Z,26.98
2018-07-24T13:26:49.049Z,25.88
2018-07-24T13:29:16.146Z,25.25
2018-07-24T13:31:43.386Z,25.57
2018-07-24T13:34:10.504Z,26.27
2018-07-24T13:36:37.664Z,26.22
2018-07-24T13:39:07.524Z,28.20
2018-07-24T13:41:34.756Z,26.21
2018-07-24T13:44:01.941Z,25.97
2018-07-24T13:46:29.101Z,26.21
2018-07-24T13:48:56.263Z,27.83
2018-07-24T13:51:23.431Z,29.71
2018-07-24T13:53:50.618Z,29.64
2018-07-24T13:56:17.780Z,29.91
2018-07-24T13:58:44.946Z,28.99
2018-07-24T14:01:12.088Z,27.35
2018-07-24T14:03:39.223Z,27.70
2018-07-24T14:06:06.364Z,26.22
2018-07-24T14:08:33.637Z,25.73
2018-07-24T14:11:00.749Z,26.26
2018-07-24T14:13:27.896Z,27.01
2018-07-24T14:15:55.098Z,25.44
2018-07-24T14:18:22.181Z,24.90
2018-07-24T14:20:49.336Z,25.61
2018-07-24T14:23:16.508Z,25.34
2018-07-24T14:25:43.733Z,25.18
2018-07-24T14:28:10.901Z,25.38
2018-07-24T14:30:38.712Z,25.45
2018-07-24T14:33:05.908Z,26.28
2018-07-24T14:35:33.219Z,27.01
2018-07-24T14:38:01.479Z,26.88
2018-07-24T14:40:28.682Z,28.92
2018-07-24T14:42:56.421Z,26.71
2018-07-24T14:45:23.600Z,26.65
2018-07-24T14:47:50.749Z,27.76
2018-07-24T14:50:17.921Z,28.74
2018-07-24T14:52:45.152Z,27.29
2018-07-24T14:55:12.412Z,26.70
2018-07-24T14:57:39.549Z,27.24
2018-07-24T15:00:07.699Z,27.06
2018-07-24T15:02:34.903Z,27.38
2018-07-24T15:05:02.625Z,27.60
2018-07-24T15:07:29.779Z,26.33
2018-07-24T15:09:56.986Z,26.42
2018-07-24T15:12:24.123Z,26.21
2018-07-24T15:14:51.428Z,25.64
2018-07-24T15:17:18.609Z,26.46
2018-07-24T15:19:45.795Z,27.37
2018-07-24T15:22:12.952Z,25.54
2018-07-24T15:24:40.061Z,26.92
2018-07-24T15:27:07.229Z,26.77
2018-07-24T15:29:34.451Z,29.34
2018-07-24T15:32:01.618Z,27.88
2018-07-24T15:34:28.820Z,28.24
2018-07-24T15:36:55.948Z,27.89
2018-07-24T15:39:23.246Z,28.16
2018-07-24T15:41:50.445Z,27.53
2018-07-24T15:44:17.673Z,28.42
2018-07-24T15:46:44.930Z,26.66
2018-07-24T15:49:12.052Z,26.96
2018-07-24T15:51:39.324Z,27.74
2018-07-24T15:54:06.485Z,27.00
2018-07-24T15:56:33.669Z,26.29
2018-07-24T15:59:00.813Z,24.58
2018-07-24T16:01:27.980Z,26.96
2018-07-24T16:03:55.160Z,25.01
2018-07-24T16:06:22.377Z,24.90
2018-07-24T16:08:49.533Z,24.58
2018-07-24T16:11:16.672Z,25.72
2018-07-24T16:13:43.805Z,27.57
2018-07-24T16:16:10.977Z,27.16
2018-07-24T16:18:38.105Z,28.78
2018-07-24T16:21:05.311Z,27.54
2018-07-24T16:23:32.500Z,27.21
2018-07-24T16:25:59.692Z,25.88
2018-07-24T16:28:26.855Z,27.63
2018-07-24T16:30:53.976Z,28.41
2018-07-24T16:33:21.142Z,28.79
2018-07-24T16:35:48.337Z,27.89
2018-07-24T16:38:15.522Z,29.05
2018-07-24T16:40:42.620Z,28.62
2018-07-24T16:43:09.848Z,28.69
2018-07-24T16:45:37.025Z,28.27
2018-07-24T16:48:04.233Z,27.75
2018-07-24T16:50:31.475Z,27.57
2018-07-24T16:52:58.599Z,29.07
2018-07-24T16:55:25.712Z,28.94
2018-07-24T16:57:52.967Z,28.31
2018-07-24T17:00:20.140Z,31.21
2018-07-24T17:02:47.306Z,30.34
2018-07-24T17:05:14.460Z,29.16
2018-07-24T17:07:41.614Z,29.12
2018-07-24T17:10:08.862Z,29.46
2018-07-24T17:12:36.063Z,30.12
2018-07-24T17:15:04.796Z,29.24
2018-07-24T17:17:31.914Z,30.56
2018-07-24T17:19:59.095Z,30.01
2018-07-24T17:22:26.332Z,29.90
2018-07-24T17:24:53.432Z,29.47
2018-07-24T17:27:20.618Z,30.71
2018-07-24T17:29:47.733Z,30.04
2018-07-24T17:32:14.880Z,29.48
2018-07-24T17:34:42.018Z,31.32
2018-07-24T17:37:09.166Z,29.77
2018-07-24T17:39:36.316Z,31.06
2018-07-24T17:42:03.521Z,33.66
2018-07-24T17:44:30.657Z,34.04
2018-07-24T17:46:57.829Z,34.32
2018-07-24T17:49:25.033Z,34.16
2018-07-24T17:51:52.267Z,35.90
2018-07-24T17:54:19.440Z,34.95
2018-07-24T17:56:46.565Z,32.88
2018-07-24T17:59:13.697Z,35.89
2018-07-24T18:01:40.847Z,36.99
2018-07-24T18:04:08.004Z,37.67
2018-07-24T18:06:35.181Z,37.10
2018-07-24T18:09:02.941Z,36.39
2018-07-24T18:11:30.141Z,39.50
2018-07-24T18:13:57.298Z,39.60
2018-07-24T18:16:24.449Z,39.43
2018-07-24T18:18:51.605Z,41.69
2018-07-24T18:21:18.885Z,39.99
2018-07-24T18:23:46.129Z,38.79
2018-07-24T18:26:13.310Z,41.33
2018-07-24T18:28:40.457Z,40.75
2018-07-24T18:31:07.636Z,41.03
2018-07-24T18:33:34.780Z,40.41
2018-07-24T18:36:01.964Z,41.01
2018-07-24T18:38:29.173Z,40.03
2018-07-24T18:40:56.332Z,40.68
2018-07-24T18:43:23.484Z,41.35
2018-07-24T18:45:50.701Z,42.47
2018-07-24T18:48:17.867Z,42.41
2018-07-24T18:50:45.037Z,41.50
2018-07-24T18:53:12.197Z,42.40
2018-07-24T18:55:39.351Z,43.52
2018-07-24T18:58:06.589Z,43.26
2018-07-24T19:00:33.741Z,43.22
2018-07-24T19:03:00.920Z,44.15
2018-07-24T19:05:28.134Z,43.78
2018-07-24T19:07:55.234Z,44.27
2018-07-24T19:10:22.361Z,42.60
2018-07-24T19:12:49.499Z,42.21
2018-07-24T19:15:16.692Z,41.29
2018-07-24T19:17:43.856Z,40.11
2018-07-24T19:20:10.998Z,40.58
2018-07-24T19:22:38.201Z,42.21
2018-07-24T19:25:05.381Z,42.26
2018-07-24T19:27:32.637Z,41.91
2018-07-24T19:29:59.857Z,43.04
2018-07-24T19:32:27.075Z,42.10
2018-07-24T19:34:54.527Z,43.84
2018-07-24T19:37:21.884Z,43.38
2018-07-24T19:39:49.355Z,43.53
2018-07-24T19:42:16.786Z,42.48
2018-07-24T19:44:44.152Z,43.11
2018-07-24T19:47:11.661Z,43.36
2018-07-24T19:49:39.067Z,43.20
2018-07-24T19:52:06.488Z,44.57
2018-07-24T19:54:33.948Z,44.27
2018-07-24T19:57:01.329Z,41.91
2018-07-24T19:59:30.325Z,43.17
2018-07-24T20:01:58.592Z,43.04
2018-07-24T20:04:25.950Z,42.13
2018-07-24T20:06:53.292Z,41.73
2018-07-24T20:09:21.282Z,43.12
2018-07-24T20:11:48.586Z,43.62
2018-07-24T20:14:15.854Z,42.05
2018-07-24T20:16:43.104Z,41.15
2018-07-24T20:19:10.393Z,41.83
2018-07-24T20:21:37.772Z,41.53
2018-07-24T20:24:06.015Z,42.37
2018-07-24T20:26:33.418Z,41.71
2018-07-24T20:29:00.691Z,42.95
2018-07-24T20:31:28.188Z,43.11
2018-07-24T20:33:55.469Z,42.69
2018-07-24T20:36:22.728Z,43.01
2018-07-24T20:38:49.949Z,43.32
2018-07-24T20:41:17.427Z,43.03
2018-07-24T20:43:44.621Z,43.65
2018-07-24T20:46:11.894Z,44.73
2018-07-24T20:48:39.235Z,43.36
2018-07-24T20:51:06.605Z,44.49
2018-07-24T20:53:33.880Z,44.98
2018-07-24T20:56:01.039Z,45.00
2018-07-24T20:58:28.209Z,45.30
2018-07-24T21:00:55.429Z,45.38
2018-07-24T21:03:22.701Z,46.97
2018-07-24T21:05:49.922Z,46.03
2018-07-24T21:08:17.085Z,46.56
2018-07-24T21:10:44.257Z,45.94
2018-07-24T21:13:11.437Z,45.07
2018-07-24T21:15:38.642Z,46.46
2018-07-24T21:18:05.875Z,47.64
2018-07-24T21:20:33.101Z,46.47
2018-07-24T21:23:00.829Z,48.04
2018-07-24T21:25:28.022Z,47.17
2018-07-24T21:27:55.231Z,47.23
2018-07-24T21:30:22.444Z,47.03
2018-07-24T21:32:49.672Z,46.12
2018-07-24T21:35:16.943Z,46.35
2018-07-24T21:37:44.152Z,46.51
2018-07-24T21:40:11.272Z,45.73
2018-07-24T21:42:38.577Z,45.02
2018-07-24T21:45:05.732Z,45.06
2018-07-24T21:47:32.936Z,44.54
2018-07-24T21:50:00.072Z,44.73
2018-07-24T21:52:27.326Z,44.66
2018-07-24T21:54:54.407Z,45.57
2018-07-24T21:57:21.552Z,45.36
2018-07-24T21:59:48.766Z,45.20
2018-07-24T22:02:15.957Z,45.46
2018-07-24T22:04:43.106Z,45.13
2018-07-24T22:07:10.285Z,45.59
2018-07-24T22:09:37.512Z,46.01
2018-07-24T22:12:04.676Z,45.56
2018-07-24T22:14:31.846Z,45.61
2018-07-24T22:16:59.000Z,46.18
2018-07-24T22:19:26.183Z,46.68
2018-07-24T22:21:53.364Z,45.99
2018-07-24T22:24:20.545Z,46.55
2018-07-24T22:26:47.728Z,46.58
2018-07-24T22:29:14.901Z,45.73
2018-07-24T22:31:42.065Z,46.36
2018-07-24T22:34:09.209Z,46.50
2018-07-24T22:36:36.425Z,45.66
2018-07-24T22:39:06.868Z,46.51
2018-07-24T22:41:34.017Z,46.94
2018-07-24T22:44:01.117Z,47.18
2018-07-24T22:46:28.261Z,46.96
2018-07-24T22:48:55.426Z,47.27
2018-07-24T22:51:22.566Z,48.07
2018-07-24T22:53:49.724Z,47.64
2018-07-24T22:56:16.905Z,48.12
2018-07-24T22:58:44.080Z,48.40
2018-07-24T23:01:11.226Z,48.44
2018-07-24T23:03:38.360Z,49.89
2018-07-24T23:06:05.556Z,50.45
2018-07-24T23:08:32.681Z,51.26
2018-07-24T23:10:59.863Z,52.60
2018-07-24T23:13:26.972Z,51.91
2018-07-24T23:15:54.110Z,51.43
2018-07-24T23:18:21.197Z,51.89
2018-07-24T23:20:48.325Z,52.31
2018-07-24T23:23:15.433Z,56.51
2018-07-24T23:25:42.588Z,58.11
2018-07-24T23:28:09.733Z,58.19
2018-07-24T23:30:36.904Z,58.50
2018-07-24T23:33:04.097Z,57.29
2018-07-24T23:35:31.448Z,56.40
2018-07-24T23:37:58.564Z,56.74
2018-07-24T23:40:25.712Z,59.76
2018-07-24T23:42:52.910Z,59.90
2018-07-24T23:45:20.056Z,62.90
2018-07-24T23:47:47.192Z,62.88
2018-07-24T23:50:14.341Z,62.02
2018-07-24T23:52:41.481Z,62.22
2018-07-24T23:55:08.661Z,60.19
2018-07-24T23:57:35.824Z,60.01
